Latest Weather Observations for Collie East

IDW60801

Issued at 6:34 pm WST Monday 20 February 2017 (issued every 30 minutes, with the page automatically refreshed every 10 minutes)

About weather observations | Map of weather stations | Latest weather observations for WA | Other Formats
Station Details ID: 009994 Name: COLLIE EAST Lat: -33.36 Lon: 116.17 Height: 200.0 m
Data from the previous 72 hours. | See also: Recent months at Collie East
Date/Time
WST
Temp
°C
App
Temp
°C
Dew
Point
°C
Rel
Hum
%
Delta-T
°C
Wind Press
QNH
hPa
Press
MSL
hPa
Rain since
9am
mm
Dir  Spd
km/h
Gust
km/h
Spd
kts
Gust
kts
20/06:30pm 21.0 19.6 13.4 62 4.4 W 13 24 7 13 - - 0.0
20/06:00pm 22.0 20.8 14.1 61 4.6 W 13 24 7 13 - - 0.0
20/05:30pm 22.7 21.0 13.7 56 5.3 W 15 28 8 15 - - 0.0
20/05:00pm 23.7 22.4 13.8 53 5.8 W 13 22 7 12 - - 0.0
20/04:30pm 24.1 22.5 13.9 53 6.0 WNW 15 33 8 18 - - 0.0
20/04:00pm 25.4 23.8 13.9 49 6.8 WNW 15 28 8 15 - - 0.0
20/03:30pm 27.1 25.8 13.8 44 8.0 W 13 20 7 11 - - 0.0
20/03:00pm 27.3 25.9 12.1 39 8.9 WNW 11 20 6 11 - - 0.0
20/02:30pm 27.4 25.9 11.8 38 9.0 WNW 11 17 6 9 - - 0.0
20/02:00pm 27.1 25.4 11.2 37 9.1 W 11 22 6 12 - - 0.0
20/01:30pm 26.0 25.1 11.4 40 8.4 W 7 15 4 8 - - 0.0
20/01:00pm 26.4 25.1 11.3 39 8.6 SSW 9 15 5 8 - - 0.0
20/12:30pm 24.8 24.5 12.7 47 7.0 NNW 6 13 3 7 - - 0.0
20/12:00pm 24.4 24.0 13.0 49 6.7 ESE 7 11 4 6 - - 0.0
20/11:30am 23.6 22.9 12.0 48 6.6 ENE 7 11 4 6 - - 0.0
20/11:00am 22.5 21.9 12.4 52 5.8 SSE 7 13 4 7 - - 0.0
20/10:30am 22.0 20.9 12.0 53 5.7 SW 9 17 5 9 - - 0.0
20/10:00am 21.3 20.3 12.2 56 5.2 SSE 9 20 5 11 - - 0.0
20/09:30am 20.5 19.6 12.5 60 4.5 SSW 9 15 5 8 - - 0.0
20/09:00am 19.7 18.8 12.5 63 4.1 SSE 9 17 5 9 - - 0.0
20/08:30am 18.8 17.7 12.1 65 3.7 SSW 9 19 5 10 - - 0.0
20/08:00am 17.5 16.4 12.0 70 3.1 SSE 9 20 5 11 - - 0.0
20/07:30am 16.8 16.1 11.9 73 2.7 SSE 7 15 4 8 - - 0.0
20/07:00am 15.6 15.5 12.0 79 2.0 ESE 4 9 2 5 - - 0.0
20/06:30am 15.1 15.7 11.9 81 1.7 CALM 0 7 0 4 - - 0.0
20/06:00am 15.1 14.6 11.9 81 1.7 SSW 6 11 3 6 - - 0.0
20/05:30am 15.6 14.9 12.0 79 2.0 S 7 17 4 9 - - 0.0
20/05:00am 16.6 15.9 13.1 80 2.0 SSW 9 19 5 10 - - 0.0
20/04:30am 16.6 17.0 13.7 83 1.7 SSW 4 7 2 4 - - 0.0
20/04:00am 16.7 16.9 13.2 80 2.0 S 4 7 2 4 - - 0.0
20/03:30am 16.9 17.7 12.6 76 2.4 CALM 0 0 0 0 - - 0.0
20/03:00am 17.5 17.9 12.4 72 2.8 SSE 2 6 1 3 - - 0.0
20/02:30am 18.2 18.9 12.2 68 3.4 CALM 0 0 0 0 - - 0.0
20/02:00am 18.8 19.3 11.6 63 4.0 CALM 0 0 0 0 - - 0.0
20/01:30am 19.3 19.9 11.8 62 4.2 CALM 0 0 0 0 - - 0.0
20/01:00am 19.3 19.5 11.8 62 4.2 SSW 2 7 1 4 - - 0.0
20/12:30am 19.3 20.0 12.3 64 3.9 CALM 0 6 0 3 - - 0.0
20/12:00am 19.7 20.4 13.4 67 3.6 SW 2 6 1 3 - - 0.0
 
Date/Time
WST
Temp
°C
App
Temp
°C
Dew
Point
°C
Rel
Hum
%
Delta-T
°C
Wind Press
QNH
hPa
Press
MSL
hPa
Rain since
9am
mm
Dir  Spd
km/h
Gust
km/h
Spd
kts
Gust
kts
19/11:30pm 20.0 21.0 14.4 70 3.3 SW 2 6 1 3 - - 0.0
19/11:00pm 20.6 22.3 15.2 71 3.2 CALM 0 0 0 0 - - 0.0
19/10:30pm 21.1 22.6 14.7 67 3.8 CALM 0 0 0 0 - - 0.0
19/10:00pm 22.0 23.7 15.1 65 4.1 CALM 0 0 0 0 - - 0.0
19/09:30pm 22.4 23.8 15.3 64 4.3 SW 2 6 1 3 - - 0.0
19/09:00pm 23.3 24.9 14.8 59 5.1 CALM 0 0 0 0 - - 0.0
19/08:30pm 24.6 26.1 14.7 54 5.9 CALM 0 0 0 0 - - 0.0
19/08:00pm 26.3 26.6 14.4 48 7.2 W 6 11 3 6 - - 0.0
19/07:30pm 26.7 28.1 15.4 50 6.9 WNW 2 7 1 4 - - 0.0
19/07:00pm 28.7 29.2 14.1 40 8.8 WNW 4 9 2 5 - - 0.0
19/06:30pm 30.1 30.1 14.2 38 9.7 WNW 7 9 4 5 - - 0.0
19/06:00pm 30.9 30.9 14.1 36 10.2 WNW 7 13 4 7 - - 0.0
19/05:30pm 31.8 31.9 14.4 34 10.7 W 7 11 4 6 - - 0.0
19/05:00pm 32.1 31.4 14.3 34 10.9 W 11 20 6 11 - - 0.0
19/04:30pm 32.7 32.0 14.3 32 11.3 WNW 11 20 6 11 - - 0.0
19/04:00pm 33.2 32.5 14.3 32 11.7 W 11 22 6 12 - - 0.0
19/03:30pm 33.1 31.9 15.1 33 11.2 WNW 15 28 8 15 - - 0.0
19/03:00pm 34.3 33.0 14.7 30 12.2 W 15 24 8 13 - - 0.0
19/02:30pm 34.9 33.8 13.1 27 13.3 WSW 11 19 6 10 - - 0.0
19/02:00pm 35.1 33.7 13.3 27 13.3 WNW 13 26 7 14 - - 0.0
19/01:30pm 33.7 32.1 12.7 28 12.7 WNW 13 26 7 14 - - 0.0
19/01:00pm 33.8 33.1 13.3 29 12.5 SW 9 17 5 9 - - 0.0
19/12:30pm 32.6 32.1 13.8 32 11.5 W 9 17 5 9 - - 0.0
19/12:00pm 31.9 31.2 13.2 32 11.3 NW 9 15 5 8 - - 0.0
19/11:30am 31.0 30.5 13.7 34 10.5 NNE 9 17 5 9 - - 0.0
19/11:00am 30.7 30.1 13.5 35 10.4 N 9 15 5 8 - - 0.0
19/10:30am 29.8 29.6 13.5 36 9.8 N 7 15 4 8 - - 0.0
19/10:00am 28.0 27.0 12.4 38 9.2 NE 9 19 5 10 - - 0.0
19/09:30am 26.2 24.6 11.5 40 8.4 NNE 11 17 6 9 - - 0.0
19/09:00am 25.8 25.0 13.0 45 7.5 NNE 9 17 5 9 - - 0.0
19/08:30am 23.7 22.7 11.1 45 7.1 NE 7 15 4 8 - - 0.0
19/08:00am 21.5 20.6 11.2 52 5.7 NE 7 13 4 7 - - 0.0
19/07:30am 18.1 17.9 13.0 72 2.9 SSE 6 7 3 4 - - 0.0
19/07:00am 16.4 16.1 12.6 78 2.1 SE 6 7 3 4 - - 0.0
19/06:30am 15.1 15.0 12.2 83 1.6 SE 4 9 2 5 - - 0.0
19/06:00am 14.6 15.1 11.7 83 1.6 CALM 0 0 0 0 - - 0.0
19/05:30am 15.4 14.9 12.0 80 1.9 SE 6 9 3 5 - - 0.0
19/05:00am 15.1 15.6 11.5 79 2.0 CALM 0 4 0 2 - - 0.0
19/04:30am 16.3 16.1 11.9 75 2.4 SE 4 7 2 4 - - 0.0
19/04:00am 17.8 17.3 12.0 69 3.2 ESE 6 7 3 4 - - 0.0
19/03:30am 18.4 17.9 12.2 67 3.5 ESE 6 7 3 4 - - 0.0
19/03:00am 18.1 17.6 12.1 68 3.3 E 6 11 3 6 - - 0.0
19/02:30am 18.7 18.2 12.2 66 3.6 ESE 6 11 3 6 - - 0.0
19/02:00am 19.4 18.8 12.2 63 4.0 E 7 13 4 7 - - 0.0
19/01:30am 20.0 18.8 11.7 59 4.6 ENE 9 13 5 7 - - 0.0
19/01:00am 20.2 19.4 11.1 56 5.0 E 6 11 3 6 - - 0.0
19/12:30am 21.2 19.1 9.8 48 6.2 E 11 19 6 10 - - 0.0
19/12:00am 22.1 19.5 7.9 40 7.5 E 11 19 6 10 - - 0.0
 
Date/Time
WST
Temp
°C
App
Temp
°C
Dew
Point
°C
Rel
Hum
%
Delta-T
°C
Wind Press
QNH
hPa
Press
MSL
hPa
Rain since
9am
mm
Dir  Spd
km/h
Gust
km/h
Spd
kts
Gust
kts
18/11:30pm 18.4 17.8 10.3 59 4.4 SE 4 7 2 4 - - 0.0
18/11:00pm 22.5 20.5 7.1 37 8.0 ESE 7 13 4 7 - - 0.0
18/10:30pm 21.5 19.8 7.7 41 7.2 ESE 6 13 3 7 - - 0.0
18/10:00pm 21.3 20.9 9.9 48 6.2 SE 2 6 1 3 - - 0.0
18/09:30pm 23.0 21.8 9.4 42 7.4 SSE 6 11 3 6 - - 0.0
18/09:00pm 23.5 22.5 10.9 45 7.1 SE 7 9 4 5 - - 0.0
18/08:30pm 24.6 23.5 10.8 42 7.8 ESE 7 11 4 6 - - 0.0
18/08:00pm 25.1 24.2 11.3 42 7.9 ESE 7 11 4 6 - - 0.0
18/07:30pm 26.1 25.0 11.8 41 8.2 ESE 9 13 5 7 - - 0.0
18/07:00pm 27.3 26.8 12.5 40 8.7 SE 7 11 4 6 - - 0.0
18/06:30pm 29.2 28.4 11.7 34 10.2 E 7 11 4 6 - - 0.0
18/06:00pm 30.2 28.9 11.2 31 11.1 E 9 17 5 9 - - 0.0
18/05:30pm 30.5 28.1 11.5 31 11.1 E 15 20 8 11 - - 0.0
18/05:00pm 31.0 30.0 12.4 32 11.1 E 9 17 5 9 - - 0.0
18/04:30pm 30.8 28.7 11.2 30 11.4 ENE 13 22 7 12 - - 0.0
18/04:00pm 31.0 29.4 11.4 30 11.5 E 11 20 6 11 - - 0.0
18/03:30pm 30.5 28.5 11.5 31 11.1 ENE 13 24 7 13 - - 0.0
18/03:00pm 31.0 30.2 12.8 32 10.9 E 9 19 5 10 - - 0.0
18/02:30pm 30.4 29.0 12.3 33 10.7 E 11 26 6 14 - - 0.0
18/02:00pm 29.7 28.0 12.6 35 10.1 ENE 13 22 7 12 - - 0.0
18/01:30pm 28.7 26.5 12.2 36 9.7 E 15 24 8 13 - - 0.0
18/01:00pm 28.6 26.9 12.5 37 9.5 E 13 24 7 13 - - 0.0
18/12:30pm 28.1 27.3 14.0 42 8.5 ESE 11 19 6 10 - - 0.0
18/12:00pm 27.2 26.2 14.6 46 7.6 E 13 22 7 12 - - 0.0
18/11:30am 25.9 24.0 13.1 45 7.5 E 15 28 8 15 - - 0.0
18/11:00am 25.3 23.7 12.9 46 7.3 E 13 20 7 11 - - 0.0
18/10:30am 23.9 22.1 12.2 48 6.7 E 13 20 7 11 - - 0.0
18/10:00am 22.1 20.3 12.1 53 5.7 ESE 13 22 7 12 - - 0.0
18/09:30am 21.5 19.4 12.4 56 5.2 E 15 28 8 15 - - 0.0
18/09:00am 19.8 17.5 11.8 60 4.5 E 15 22 8 12 - - 0.0
18/08:30am 18.0 15.5 11.1 64 3.8 ESE 15 22 8 12 - - 0.0
18/08:00am 17.1 14.9 10.9 67 3.4 E 13 22 7 12 - - 0.0
18/07:30am 15.7 13.9 10.9 73 2.6 E 11 19 6 10 - - 0.0
18/07:00am 14.3 12.8 10.5 78 2.0 E 9 15 5 8 - - 0.0
18/06:30am 13.5 12.4 10.5 82 1.6 ESE 7 11 4 6 - - 0.0
18/06:00am 13.2 12.0 10.2 82 1.6 ESE 7 13 4 7 - - 0.0
18/05:30am 13.4 12.2 10.4 82 1.6 SE 7 13 4 7 - - 0.0
18/05:00am 13.7 12.2 10.5 81 1.7 ESE 9 15 5 8 - - 0.0
18/04:30am 13.8 12.6 10.4 80 1.8 ESE 7 15 4 8 - - 0.0
18/04:00am 14.1 13.0 10.5 79 1.9 ESE 7 11 4 6 - - 0.0
18/03:30am 14.6 13.2 10.8 78 2.0 ESE 9 20 5 11 - - 0.0
18/03:00am 14.7 13.2 10.7 77 2.1 ESE 9 17 5 9 - - 0.0
18/02:30am 15.2 13.4 10.8 75 2.4 ESE 11 17 6 9 - - 0.0
18/02:00am 15.6 14.2 10.8 73 2.6 ESE 9 19 5 10 - - 0.0
18/01:30am 16.1 15.1 11.1 72 2.7 ESE 7 11 4 6 - - 0.0
18/01:00am 16.8 15.8 11.1 69 3.1 ESE 7 13 4 7 - - 0.0
18/12:30am 17.5 16.1 10.9 65 3.6 E 9 15 5 8 - - 0.0
18/12:00am 18.2 17.0 11.5 65 3.7 ESE 9 15 5 8 - - 0.0
 
Date/Time
WST
Temp
°C
App
Temp
°C
Dew
Point
°C
Rel
Hum
%
Delta-T
°C
Wind Press
QNH
hPa
Press
MSL
hPa
Rain since
9am
mm
Dir  Spd
km/h
Gust
km/h
Spd
kts
Gust
kts
17/11:30pm 18.9 17.3 11.5 62 4.1 E 11 20 6 11 - - 0.0
17/11:00pm 19.8 18.1 11.3 58 4.7 ESE 11 17 6 9 - - 0.0
17/10:30pm 20.7 18.6 11.3 55 5.2 ESE 13 32 7 17 - - 0.0
17/10:00pm 21.5 19.5 11.5 53 5.6 ESE 13 30 7 16 - - 0.0
17/09:30pm 21.8 21.0 11.8 53 5.6 ESE 7 17 4 9 - - 0.0
17/09:00pm 22.4 21.3 12.1 52 5.9 ESE 9 15 5 8 - - 0.0
17/08:30pm 22.8 22.0 11.8 50 6.2 ESE 7 11 4 6 - - 0.0
17/08:00pm 23.4 22.7 12.1 49 6.5 ESE 7 11 4 6 - - 0.0
17/07:30pm 24.2 23.3 11.5 45 7.2 ESE 7 13 4 7 - - 0.0
17/07:00pm 25.1 23.9 11.6 42 7.7 ESE 9 15 5 8 - - 0.0

Other Formats:

Comma delimited format used in spreadsheet applications
http://www.bom.gov.au/fwo/IDW60801/IDW60801.95621.axf

JavaScript Object Notation format (JSON) in row-major order
http://www.bom.gov.au/fwo/IDW60801/IDW60801.95621.json